sensor_id;sensor_type;location;lat;lon;timestamp;temperature;humidity
2565;DHT22;1292;48.020;7.822;2023-08-24T05:45:31;22.30;99.90
2565;DHT22;1292;48.020;7.822;2023-08-24T05:47:58;22.30;99.90
2565;DHT22;1292;48.020;7.822;2023-08-24T05:50:25;22.30;99.90
2565;DHT22;1292;48.020;7.822;2023-08-24T05:52:52;22.30;99.90
2565;DHT22;1292;48.020;7.822;2023-08-24T05:55:18;22.10;99.90
2565;DHT22;1292;48.020;7.822;2023-08-24T05:57:45;22.20;99.90
2565;DHT22;1292;48.020;7.822;2023-08-24T06:00:13;22.30;99.90
2565;DHT22;1292;48.020;7.822;2023-08-24T06:02:42;22.30;99.90
2565;DHT22;1292;48.020;7.822;2023-08-24T06:05:09;22.40;99.90
2565;DHT22;1292;48.020;7.822;2023-08-24T06:07:36;22.50;99.90
2565;DHT22;1292;48.020;7.822;2023-08-24T06:10:04;22.60;99.90
2565;DHT22;1292;48.020;7.822;2023-08-24T06:12:31;22.60;99.90
2565;DHT22;1292;48.020;7.822;2023-08-24T06:14:58;22.50;99.90
2565;DHT22;1292;48.020;7.822;2023-08-24T06:17:27;22.40;99.90
2565;DHT22;1292;48.020;7.822;2023-08-24T06:19:55;22.50;99.90
2565;DHT22;1292;48.020;7.822;2023-08-24T06:22:22;22.60;99.90
2565;DHT22;1292;48.020;7.822;2023-08-24T06:24:49;22.80;99.90
2565;DHT22;1292;48.020;7.822;2023-08-24T06:27:16;22.80;99.90
2565;DHT22;1292;48.020;7.822;2023-08-24T06:29:43;22.80;99.90
2565;DHT22;1292;48.020;7.822;2023-08-24T06:32:09;22.90;99.90
2565;DHT22;1292;48.020;7.822;2023-08-24T06:34:36;22.90;99.90
2565;DHT22;1292;48.020;7.822;2023-08-24T06:37:05;22.80;99.90
2565;DHT22;1292;48.020;7.822;2023-08-24T06:39:32;22.70;99.90
2565;DHT22;1292;48.020;7.822;2023-08-24T06:41:58;22.80;99.90
2565;DHT22;1292;48.020;7.822;2023-08-24T06:44:25;22.80;99.90
2565;DHT22;1292;48.020;7.822;2023-08-24T06:46:52;22.80;99.90
2565;DHT22;1292;48.020;7.822;2023-08-24T06:49:19;22.80;99.90
2565;DHT22;1292;48.020;7.822;2023-08-24T06:51:45;22.80;99.90
2565;DHT22;1292;48.020;7.822;2023-08-24T06:54:14;22.90;99.90
2565;DHT22;1292;48.020;7.822;2023-08-24T06:56:42;22.90;99.90
2565;DHT22;1292;48.020;7.822;2023-08-24T06:59:09;23.00;99.90
2565;DHT22;1292;48.020;7.822;2023-08-24T07:01:38;23.00;99.90
2565;DHT22;1292;48.020;7.822;2023-08-24T07:04:06;23.00;99.90
2565;DHT22;1292;48.020;7.822;2023-08-24T07:06:33;23.00;99.90
2565;DHT22;1292;48.020;7.822;2023-08-24T07:09:01;23.00;99.90
2565;DHT22;1292;48.020;7.822;2023-08-24T07:11:33;23.00;99.90
2565;DHT22;1292;48.020;7.822;2023-08-24T07:14:00;23.10;99.90
2565;DHT22;1292;48.020;7.822;2023-08-24T07:16:26;23.10;99.90
2565;DHT22;1292;48.020;7.822;2023-08-24T07:18:53;23.10;99.90
2565;DHT22;1292;48.020;7.822;2023-08-24T07:21:20;23.10;99.90
2565;DHT22;1292;48.020;7.822;2023-08-24T07:23:47;23.10;99.90
2565;DHT22;1292;48.020;7.822;2023-08-24T07:26:14;23.20;99.90
2565;DHT22;1292;48.020;7.822;2023-08-24T07:28:42;23.30;99.90
2565;DHT22;1292;48.020;7.822;2023-08-24T07:31:09;23.30;99.90
2565;DHT22;1292;48.020;7.822;2023-08-24T07:33:37;23.40;99.90
2565;DHT22;1292;48.020;7.822;2023-08-24T07:36:05;23.40;99.90
2565;DHT22;1292;48.020;7.822;2023-08-24T07:38:32;23.40;99.90
2565;DHT22;1292;48.020;7.822;2023-08-24T07:40:59;23.40;99.90
2565;DHT22;1292;48.020;7.822;2023-08-24T07:43:26;23.60;99.90
2565;DHT22;1292;48.020;7.822;2023-08-24T07:45:54;23.70;99.90
2565;DHT22;1292;48.020;7.822;2023-08-24T07:48:21;23.80;99.90
2565;DHT22;1292;48.020;7.822;2023-08-24T07:50:47;23.90;99.90
2565;DHT22;1292;48.020;7.822;2023-08-24T07:53:14;24.10;99.90
2565;DHT22;1292;48.020;7.822;2023-08-24T07:55:42;24.30;99.90
2565;DHT22;1292;48.020;7.822;2023-08-24T07:58:09;24.40;99.90
2565;DHT22;1292;48.020;7.822;2023-08-24T08:00:36;24.60;99.90
2565;DHT22;1292;48.020;7.822;2023-08-24T08:03:04;24.70;99.90
2565;DHT22;1292;48.020;7.822;2023-08-24T08:05:31;24.70;99.90
2565;DHT22;1292;48.020;7.822;2023-08-24T08:07:58;24.80;99.90
2565;DHT22;1292;48.020;7.822;2023-08-24T08:10:25;24.90;99.90
2565;DHT22;1292;48.020;7.822;2023-08-24T08:12:52;25.10;99.90
2565;DHT22;1292;48.020;7.822;2023-08-24T08:15:19;25.10;99.90
2565;DHT22;1292;48.020;7.822;2023-08-24T08:17:46;25.20;99.90
2565;DHT22;1292;48.020;7.822;2023-08-24T08:20:15;25.20;99.90
2565;DHT22;1292;48.020;7.822;2023-08-24T08:22:42;25.20;99.90
2565;DHT22;1292;48.020;7.822;2023-08-24T08:25:09;25.40;99.90
2565;DHT22;1292;48.020;7.822;2023-08-24T08:27:37;25.40;99.90
2565;DHT22;1292;48.020;7.822;2023-08-24T08:30:05;25.40;99.90
2565;DHT22;1292;48.020;7.822;2023-08-24T08:32:32;25.40;99.90
2565;DHT22;1292;48.020;7.822;2023-08-24T08:34:59;25.50;99.90
2565;DHT22;1292;48.020;7.822;2023-08-24T08:37:30;25.50;99.90
2565;DHT22;1292;48.020;7.822;2023-08-24T08:39:57;25.40;99.90
2565;DHT22;1292;48.020;7.822;2023-08-24T08:42:24;25.40;99.90
2565;DHT22;1292;48.020;7.822;2023-08-24T08:44:51;25.50;99.90
2565;DHT22;1292;48.020;7.822;2023-08-24T08:47:21;25.50;99.90
2565;DHT22;1292;48.020;7.822;2023-08-24T08:49:48;25.60;99.90
2565;DHT22;1292;48.020;7.822;2023-08-24T08:52:16;25.60;99.90
2565;DHT22;1292;48.020;7.822;2023-08-24T08:54:44;25.70;99.90
2565;DHT22;1292;48.020;7.822;2023-08-24T08:57:12;25.80;99.90
2565;DHT22;1292;48.020;7.822;2023-08-24T08:59:39;25.80;99.90
2565;DHT22;1292;48.020;7.822;2023-08-24T09:02:08;25.90;99.90
2565;DHT22;1292;48.020;7.822;2023-08-24T09:04:41;26.10;99.90
2565;DHT22;1292;48.020;7.822;2023-08-24T09:07:08;26.70;99.90
2565;DHT22;1292;48.020;7.822;2023-08-24T09:09:38;27.00;99.90
2565;DHT22;1292;48.020;7.822;2023-08-24T09:12:07;27.90;99.90
2565;DHT22;1292;48.020;7.822;2023-08-24T09:14:34;29.20;99.90
2565;DHT22;1292;48.020;7.822;2023-08-24T09:17:01;29.80;99.90
2565;DHT22;1292;48.020;7.822;2023-08-24T09:19:29;29.80;99.90
2565;DHT22;1292;48.020;7.822;2023-08-24T09:21:57;30.00;99.90
2565;DHT22;1292;48.020;7.822;2023-08-24T09:24:31;30.50;99.90
2565;DHT22;1292;48.020;7.822;2023-08-24T09:26:58;31.00;99.90
2565;DHT22;1292;48.020;7.822;2023-08-24T09:29:26;31.50;99.90
2565;DHT22;1292;48.020;7.822;2023-08-24T09:31:54;31.50;99.90
2565;DHT22;1292;48.020;7.822;2023-08-24T09:34:23;31.50;99.90
2565;DHT22;1292;48.020;7.822;2023-08-24T09:36:52;31.20;99.90
2565;DHT22;1292;48.020;7.822;2023-08-24T09:39:19;31.00;99.90
2565;DHT22;1292;48.020;7.822;2023-08-24T09:41:48;30.90;99.90
2565;DHT22;1292;48.020;7.822;2023-08-24T09:44:16;30.70;99.90
2565;DHT22;1292;48.020;7.822;2023-08-24T09:46:45;30.50;99.90
2565;DHT22;1292;48.020;7.822;2023-08-24T09:49:12;30.50;99.90
2565;DHT22;1292;48.020;7.822;2023-08-24T09:51:40;30.30;99.90
2565;DHT22;1292;48.020;7.822;2023-08-24T09:54:08;30.00;99.90
2565;DHT22;1292;48.020;7.822;2023-08-24T09:56:37;29.70;99.90
2565;DHT22;1292;48.020;7.822;2023-08-24T09:59:11;29.30;99.90
2565;DHT22;1292;48.020;7.822;2023-08-24T10:01:42;28.90;99.90
2565;DHT22;1292;48.020;7.822;2023-08-24T10:04:12;28.80;99.90
2565;DHT22;1292;48.020;7.822;2023-08-24T10:06:39;28.70;99.90
2565;DHT22;1292;48.020;7.822;2023-08-24T10:09:10;28.50;99.90
2565;DHT22;1292;48.020;7.822;2023-08-24T10:11:43;28.60;99.90
2565;DHT22;1292;48.020;7.822;2023-08-24T10:14:17;28.60;99.90
2565;DHT22;1292;48.020;7.822;2023-08-24T10:16:46;28.80;99.90
2565;DHT22;1292;48.020;7.822;2023-08-24T10:19:15;28.80;99.90
2565;DHT22;1292;48.020;7.822;2023-08-24T10:21:42;29.00;99.90
2565;DHT22;1292;48.020;7.822;2023-08-24T10:24:09;29.20;99.90
2565;DHT22;1292;48.020;7.822;2023-08-24T10:26:39;29.30;99.90
2565;DHT22;1292;48.020;7.822;2023-08-24T10:29:06;29.30;99.90
2565;DHT22;1292;48.020;7.822;2023-08-24T10:31:33;29.40;99.90
2565;DHT22;1292;48.020;7.822;2023-08-24T10:34:04;29.40;99.90
2565;DHT22;1292;48.020;7.822;2023-08-24T10:36:33;29.40;99.90
2565;DHT22;1292;48.020;7.822;2023-08-24T10:39:03;29.50;99.90
2565;DHT22;1292;48.020;7.822;2023-08-24T10:41:46;29.70;99.90
2565;DHT22;1292;48.020;7.822;2023-08-24T10:44:21;29.80;99.90
2565;DHT22;1292;48.020;7.822;2023-08-24T10:47:23;29.90;99.90
2565;DHT22;1292;48.020;7.822;2023-08-24T10:49:58;30.10;99.90
2565;DHT22;1292;48.020;7.822;2023-08-24T10:52:31;30.20;99.90
2565;DHT22;1292;48.020;7.822;2023-08-24T10:55:01;30.20;99.90
2565;DHT22;1292;48.020;7.822;2023-08-24T10:57:35;30.30;99.90
2565;DHT22;1292;48.020;7.822;2023-08-24T11:00:05;30.30;99.90
2565;DHT22;1292;48.020;7.822;2023-08-24T11:02:44;30.40;99.90
2565;DHT22;1292;48.020;7.822;2023-08-24T11:05:21;30.50;99.90
2565;DHT22;1292;48.020;7.822;2023-08-24T11:07:53;30.50;99.90
2565;DHT22;1292;48.020;7.822;2023-08-24T11:10:21;30.40;99.90
2565;DHT22;1292;48.020;7.822;2023-08-24T11:13:12;30.50;99.90
2565;DHT22;1292;48.020;7.822;2023-08-24T11:15:43;30.20;99.90
2565;DHT22;1292;48.020;7.822;2023-08-24T11:18:21;30.30;99.90
2565;DHT22;1292;48.020;7.822;2023-08-24T11:20:50;30.50;99.90
2565;DHT22;1292;48.020;7.822;2023-08-24T11:23:20;30.50;99.90
2565;DHT22;1292;48.020;7.822;2023-08-24T11:25:49;30.70;99.90
2565;DHT22;1292;48.020;7.822;2023-08-24T11:28:17;31.00;99.90
2565;DHT22;1292;48.020;7.822;2023-08-24T11:30:46;31.20;99.90
2565;DHT22;1292;48.020;7.822;2023-08-24T11:33:13;31.30;99.90
2565;DHT22;1292;48.020;7.822;2023-08-24T11:35:42;31.40;99.90
2565;DHT22;1292;48.020;7.822;2023-08-24T11:38:10;31.70;99.90
2565;DHT22;1292;48.020;7.822;2023-08-24T11:40:39;31.70;99.90
2565;DHT22;1292;48.020;7.822;2023-08-24T11:43:06;31.80;99.90
2565;DHT22;1292;48.020;7.822;2023-08-24T11:45:33;31.90;99.90
2565;DHT22;1292;48.020;7.822;2023-08-24T11:48:02;31.90;99.90
2565;DHT22;1292;48.020;7.822;2023-08-24T11:50:30;32.00;99.90
2565;DHT22;1292;48.020;7.822;2023-08-24T11:52:57;32.20;99.90
2565;DHT22;1292;48.020;7.822;2023-08-24T11:55:25;32.30;99.90
2565;DHT22;1292;48.020;7.822;2023-08-24T11:57:53;32.50;99.90
2565;DHT22;1292;48.020;7.822;2023-08-24T12:00:21;32.60;99.90
2565;DHT22;1292;48.020;7.822;2023-08-24T12:02:49;32.70;99.90
2565;DHT22;1292;48.020;7.822;2023-08-24T12:05:21;32.90;99.90
2565;DHT22;1292;48.020;7.822;2023-08-24T12:07:48;33.10;99.90
2565;DHT22;1292;48.020;7.822;2023-08-24T12:10:16;33.20;99.90
2565;DHT22;1292;48.020;7.822;2023-08-24T12:12:43;33.30;99.90
2565;DHT22;1292;48.020;7.822;2023-08-24T12:15:16;33.40;99.90
2565;DHT22;1292;48.020;7.822;2023-08-24T12:17:46;33.10;99.90
2565;DHT22;1292;48.020;7.822;2023-08-24T12:20:20;33.20;99.90
2565;DHT22;1292;48.020;7.822;2023-08-24T12:22:54;33.40;99.90
2565;DHT22;1292;48.020;7.822;2023-08-24T12:25:25;33.50;99.90
2565;DHT22;1292;48.020;7.822;2023-08-24T12:27:52;33.50;99.90
2565;DHT22;1292;48.020;7.822;2023-08-24T12:30:20;33.50;99.90
2565;DHT22;1292;48.020;7.822;2023-08-24T12:32:48;33.40;99.90
2565;DHT22;1292;48.020;7.822;2023-08-24T12:35:17;33.30;99.90
2565;DHT22;1292;48.020;7.822;2023-08-24T12:37:44;33.40;99.90
2565;DHT22;1292;48.020;7.822;2023-08-24T12:40:12;33.60;99.90
2565;DHT22;1292;48.020;7.822;2023-08-24T12:42:39;33.70;99.90
2565;DHT22;1292;48.020;7.822;2023-08-24T12:45:07;33.60;99.90
2565;DHT22;1292;48.020;7.822;2023-08-24T12:47:35;33.80;99.90
2565;DHT22;1292;48.020;7.822;2023-08-24T12:50:05;34.00;99.90
2565;DHT22;1292;48.020;7.822;2023-08-24T12:52:32;34.10;99.90
2565;DHT22;1292;48.020;7.822;2023-08-24T12:54:59;34.00;99.90
2565;DHT22;1292;48.020;7.822;2023-08-24T12:57:26;34.00;99.90
2565;DHT22;1292;48.020;7.822;2023-08-24T12:59:52;33.90;99.90
2565;DHT22;1292;48.020;7.822;2023-08-24T13:02:20;33.80;99.90
2565;DHT22;1292;48.020;7.822;2023-08-24T13:04:48;33.80;99.90
2565;DHT22;1292;48.020;7.822;2023-08-24T13:07:15;33.80;99.90
2565;DHT22;1292;48.020;7.822;2023-08-24T13:09:41;33.70;99.90
2565;DHT22;1292;48.020;7.822;2023-08-24T13:12:08;33.90;99.90
2565;DHT22;1292;48.020;7.822;2023-08-24T13:14:35;34.00;99.90
2565;DHT22;1292;48.020;7.822;2023-08-24T13:17:02;34.10;99.90
2565;DHT22;1292;48.020;7.822;2023-08-24T13:19:29;34.20;99.90
2565;DHT22;1292;48.020;7.822;2023-08-24T13:21:57;34.40;99.90
2565;DHT22;1292;48.020;7.822;2023-08-24T13:24:24;34.40;99.90
2565;DHT22;1292;48.020;7.822;2023-08-24T13:26:51;34.20;99.90
2565;DHT22;1292;48.020;7.822;2023-08-24T13:29:18;34.30;99.90
2565;DHT22;1292;48.020;7.822;2023-08-24T13:31:44;34.40;99.90
2565;DHT22;1292;48.020;7.822;2023-08-24T13:34:11;34.40;99.90
2565;DHT22;1292;48.020;7.822;2023-08-24T13:36:38;34.40;99.90
2565;DHT22;1292;48.020;7.822;2023-08-24T13:39:06;34.60;99.90
2565;DHT22;1292;48.020;7.822;2023-08-24T13:41:33;34.70;99.90
2565;DHT22;1292;48.020;7.822;2023-08-24T13:44:00;34.70;99.90
2565;DHT22;1292;48.020;7.822;2023-08-24T13:46:26;34.90;99.90
2565;DHT22;1292;48.020;7.822;2023-08-24T13:48:53;34.90;99.90
2565;DHT22;1292;48.020;7.822;2023-08-24T13:51:20;34.80;99.90
2565;DHT22;1292;48.020;7.822;2023-08-24T13:53:47;34.90;99.90
2565;DHT22;1292;48.020;7.822;2023-08-24T13:56:15;35.00;99.90
2565;DHT22;1292;48.020;7.822;2023-08-24T13:58:42;35.10;99.90
2565;DHT22;1292;48.020;7.822;2023-08-24T14:01:09;35.00;99.90
2565;DHT22;1292;48.020;7.822;2023-08-24T14:03:38;35.10;99.90
2565;DHT22;1292;48.020;7.822;2023-08-24T14:06:05;35.10;99.90
2565;DHT22;1292;48.020;7.822;2023-08-24T14:08:32;35.10;99.90
2565;DHT22;1292;48.020;7.822;2023-08-24T14:10:59;35.20;99.90
2565;DHT22;1292;48.020;7.822;2023-08-24T14:13:27;35.20;99.90
2565;DHT22;1292;48.020;7.822;2023-08-24T14:15:54;35.30;99.90
2565;DHT22;1292;48.020;7.822;2023-08-24T14:18:21;35.20;99.90
2565;DHT22;1292;48.020;7.822;2023-08-24T14:20:48;35.30;99.90
2565;DHT22;1292;48.020;7.822;2023-08-24T14:23:15;35.30;99.90
2565;DHT22;1292;48.020;7.822;2023-08-24T14:25:42;35.30;99.90
2565;DHT22;1292;48.020;7.822;2023-08-24T14:28:09;35.30;99.90
2565;DHT22;1292;48.020;7.822;2023-08-24T14:30:38;35.20;99.90
2565;DHT22;1292;48.020;7.822;2023-08-24T14:33:05;35.30;99.90
2565;DHT22;1292;48.020;7.822;2023-08-24T14:35:32;35.30;99.90
2565;DHT22;1292;48.020;7.822;2023-08-24T14:37:59;35.20;99.90
2565;DHT22;1292;48.020;7.822;2023-08-24T14:40:25;35.10;99.90
2565;DHT22;1292;48.020;7.822;2023-08-24T14:42:52;35.00;99.90
2565;DHT22;1292;48.020;7.822;2023-08-24T14:45:20;34.90;99.90
2565;DHT22;1292;48.020;7.822;2023-08-24T14:47:48;34.90;99.90
2565;DHT22;1292;48.020;7.822;2023-08-24T14:50:15;35.00;99.90
2565;DHT22;1292;48.020;7.822;2023-08-24T14:52:42;34.90;99.90
2565;DHT22;1292;48.020;7.822;2023-08-24T14:55:09;34.90;99.90
2565;DHT22;1292;48.020;7.822;2023-08-24T14:57:36;34.80;99.90
2565;DHT22;1292;48.020;7.822;2023-08-24T15:00:03;34.80;99.90
2565;DHT22;1292;48.020;7.822;2023-08-24T15:02:31;34.60;99.90
2565;DHT22;1292;48.020;7.822;2023-08-24T15:05:00;34.60;99.90
2565;DHT22;1292;48.020;7.822;2023-08-24T15:07:27;34.50;99.90
2565;DHT22;1292;48.020;7.822;2023-08-24T15:09:53;34.50;99.90
2565;DHT22;1292;48.020;7.822;2023-08-24T15:12:21;34.30;99.90
2565;DHT22;1292;48.020;7.822;2023-08-24T15:14:58;34.30;99.90
2565;DHT22;1292;48.020;7.822;2023-08-24T15:17:25;34.00;99.90
2565;DHT22;1292;48.020;7.822;2023-08-24T15:19:54;33.60;99.90
2565;DHT22;1292;48.020;7.822;2023-08-24T15:22:22;33.30;99.90
2565;DHT22;1292;48.020;7.822;2023-08-24T15:24:51;33.00;99.90
2565;DHT22;1292;48.020;7.822;2023-08-24T15:27:18;32.80;99.90
2565;DHT22;1292;48.020;7.822;2023-08-24T15:29:45;32.40;99.90
2565;DHT22;1292;48.020;7.822;2023-08-24T15:32:12;32.10;99.90
2565;DHT22;1292;48.020;7.822;2023-08-24T15:34:39;31.90;99.90
2565;DHT22;1292;48.020;7.822;2023-08-24T15:37:06;31.70;99.90
2565;DHT22;1292;48.020;7.822;2023-08-24T15:39:36;31.60;99.90
2565;DHT22;1292;48.020;7.822;2023-08-24T15:42:04;31.40;99.90
2565;DHT22;1292;48.020;7.822;2023-08-24T15:44:31;31.20;99.90
2565;DHT22;1292;48.020;7.822;2023-08-24T15:46:58;31.10;99.90
2565;DHT22;1292;48.020;7.822;2023-08-24T15:49:25;31.00;99.90
2565;DHT22;1292;48.020;7.822;2023-08-24T15:51:52;30.80;99.90
2565;DHT22;1292;48.020;7.822;2023-08-24T15:54:19;30.80;99.90
2565;DHT22;1292;48.020;7.822;2023-08-24T15:56:49;30.80;99.90
2565;DHT22;1292;48.020;7.822;2023-08-24T15:59:18;30.80;99.90
2565;DHT22;1292;48.020;7.822;2023-08-24T16:01:45;30.70;99.90
2565;DHT22;1292;48.020;7.822;2023-08-24T16:04:13;30.70;99.90
2565;DHT22;1292;48.020;7.822;2023-08-24T16:06:41;30.70;99.90
2565;DHT22;1292;48.020;7.822;2023-08-24T16:09:08;30.60;99.90
2565;DHT22;1292;48.020;7.822;2023-08-24T16:11:35;30.60;99.90
2565;DHT22;1292;48.020;7.822;2023-08-24T16:14:09;30.40;99.90
2565;DHT22;1292;48.020;7.822;2023-08-24T16:16:37;30.40;99.90
2565;DHT22;1292;48.020;7.822;2023-08-24T16:19:04;30.40;99.90
2565;DHT22;1292;48.020;7.822;2023-08-24T16:21:31;30.30;99.90
2565;DHT22;1292;48.020;7.822;2023-08-24T16:23:57;30.30;99.90
2565;DHT22;1292;48.020;7.822;2023-08-24T16:26:24;30.20;99.90
2565;DHT22;1292;48.020;7.822;2023-08-24T16:28:51;30.20;99.90
2565;DHT22;1292;48.020;7.822;2023-08-24T16:31:20;30.20;99.90
2565;DHT22;1292;48.020;7.822;2023-08-24T16:33:46;30.10;99.90
2565;DHT22;1292;48.020;7.822;2023-08-24T16:36:13;30.10;99.90
2565;DHT22;1292;48.020;7.822;2023-08-24T16:38:40;30.00;99.90
2565;DHT22;1292;48.020;7.822;2023-08-24T16:41:07;30.00;99.90
2565;DHT22;1292;48.020;7.822;2023-08-24T16:43:34;29.90;99.90
2565;DHT22;1292;48.020;7.822;2023-08-24T16:46:01;29.90;99.90
2565;DHT22;1292;48.020;7.822;2023-08-24T16:48:29;29.80;99.90
2565;DHT22;1292;48.020;7.822;2023-08-24T16:50:57;29.70;99.90
2565;DHT22;1292;48.020;7.822;2023-08-24T16:53:25;29.50;99.90
2565;DHT22;1292;48.020;7.822;2023-08-24T16:55:54;29.50;99.90
2565;DHT22;1292;48.020;7.822;2023-08-24T16:58:21;29.40;99.90
2565;DHT22;1292;48.020;7.822;2023-08-24T17:00:48;29.40;99.90
2565;DHT22;1292;48.020;7.822;2023-08-24T17:03:15;29.40;99.90
2565;DHT22;1292;48.020;7.822;2023-08-24T17:05:43;29.30;99.90
2565;DHT22;1292;48.020;7.822;2023-08-24T17:08:10;29.30;99.90
2565;DHT22;1292;48.020;7.822;2023-08-24T17:10:38;29.30;99.90
2565;DHT22;1292;48.020;7.822;2023-08-24T17:13:05;29.30;99.90
2565;DHT22;1292;48.020;7.822;2023-08-24T17:15:32;29.30;99.90
2565;DHT22;1292;48.020;7.822;2023-08-24T17:17:59;29.30;99.90
2565;DHT22;1292;48.020;7.822;2023-08-24T17:20:26;29.30;99.90
2565;DHT22;1292;48.020;7.822;2023-08-24T17:22:54;29.30;99.90
2565;DHT22;1292;48.020;7.822;2023-08-24T17:25:21;29.30;99.90
2565;DHT22;1292;48.020;7.822;2023-08-24T17:27:48;29.20;99.90
2565;DHT22;1292;48.020;7.822;2023-08-24T17:30:15;29.00;99.90
2565;DHT22;1292;48.020;7.822;2023-08-24T17:32:42;29.00;99.90
2565;DHT22;1292;48.020;7.822;2023-08-24T17:35:10;29.10;99.90
2565;DHT22;1292;48.020;7.822;2023-08-24T17:37:37;29.20;99.90
2565;DHT22;1292;48.020;7.822;2023-08-24T17:40:06;29.20;99.90
2565;DHT22;1292;48.020;7.822;2023-08-24T17:42:36;29.20;99.90
2565;DHT22;1292;48.020;7.822;2023-08-24T17:45:03;29.00;99.90
2565;DHT22;1292;48.020;7.822;2023-08-24T17:47:31;28.80;99.90
2565;DHT22;1292;48.020;7.822;2023-08-24T17:49:58;28.50;99.90
2565;DHT22;1292;48.020;7.822;2023-08-24T17:52:25;28.40;99.90
2565;DHT22;1292;48.020;7.822;2023-08-24T17:54:52;28.20;99.90
2565;DHT22;1292;48.020;7.822;2023-08-24T17:57:20;28.10;99.90
2565;DHT22;1292;48.020;7.822;2023-08-24T17:59:47;28.00;99.90
2565;DHT22;1292;48.020;7.822;2023-08-24T18:02:14;28.00;99.90
2565;DHT22;1292;48.020;7.822;2023-08-24T18:04:41;27.70;99.90
2565;DHT22;1292;48.020;7.822;2023-08-24T18:07:09;26.60;99.90
2565;DHT22;1292;48.020;7.822;2023-08-24T18:09:36;26.00;99.90
2565;DHT22;1292;48.020;7.822;2023-08-24T18:12:04;25.20;99.90
2565;DHT22;1292;48.020;7.822;2023-08-24T18:14:34;24.60;99.90
2565;DHT22;1292;48.020;7.822;2023-08-24T18:17:01;24.10;99.90
2565;DHT22;1292;48.020;7.822;2023-08-24T18:19:28;23.70;99.90
2565;DHT22;1292;48.020;7.822;2023-08-24T18:21:55;23.40;99.90
2565;DHT22;1292;48.020;7.822;2023-08-24T18:24:22;23.30;99.90
2565;DHT22;1292;48.020;7.822;2023-08-24T18:26:49;23.20;99.90
2565;DHT22;1292;48.020;7.822;2023-08-24T18:29:16;23.20;99.90
2565;DHT22;1292;48.020;7.822;2023-08-24T18:31:44;23.30;99.90
2565;DHT22;1292;48.020;7.822;2023-08-24T18:34:11;23.40;99.90
2565;DHT22;1292;48.020;7.822;2023-08-24T18:36:37;23.30;99.90
2565;DHT22;1292;48.020;7.822;2023-08-24T18:39:04;23.20;99.90
2565;DHT22;1292;48.020;7.822;2023-08-24T18:41:31;23.20;99.90
2565;DHT22;1292;48.020;7.822;2023-08-24T18:43:58;23.20;99.90
2565;DHT22;1292;48.020;7.822;2023-08-24T18:46:25;23.20;99.90
2565;DHT22;1292;48.020;7.822;2023-08-24T18:48:53;23.10;99.90
2565;DHT22;1292;48.020;7.822;2023-08-24T18:51:20;23.10;99.90
2565;DHT22;1292;48.020;7.822;2023-08-24T18:53:48;23.00;99.90
2565;DHT22;1292;48.020;7.822;2023-08-24T18:56:14;23.00;99.90
2565;DHT22;1292;48.020;7.822;2023-08-24T18:58:41;23.00;99.90
2565;DHT22;1292;48.020;7.822;2023-08-24T19:01:12;23.00;99.90
2565;DHT22;1292;48.020;7.822;2023-08-24T19:03:40;22.90;99.90
2565;DHT22;1292;48.020;7.822;2023-08-24T19:06:08;22.90;99.90
2565;DHT22;1292;48.020;7.822;2023-08-24T19:08:35;23.00;99.90
2565;DHT22;1292;48.020;7.822;2023-08-24T19:11:02;22.90;99.90
2565;DHT22;1292;48.020;7.822;2023-08-24T19:13:29;22.90;99.90
2565;DHT22;1292;48.020;7.822;2023-08-24T19:15:59;22.90;99.90
2565;DHT22;1292;48.020;7.822;2023-08-24T19:18:26;22.90;99.90
2565;DHT22;1292;48.020;7.822;2023-08-24T19:20:53;22.90;99.90
2565;DHT22;1292;48.020;7.822;2023-08-24T19:23:21;22.80;99.90
2565;DHT22;1292;48.020;7.822;2023-08-24T19:25:48;22.90;99.90
2565;DHT22;1292;48.020;7.822;2023-08-24T19:28:15;22.90;99.90
2565;DHT22;1292;48.020;7.822;2023-08-24T19:30:42;22.90;99.90
2565;DHT22;1292;48.020;7.822;2023-08-24T19:33:09;22.90;99.90
2565;DHT22;1292;48.020;7.822;2023-08-24T19:35:37;22.90;99.90
2565;DHT22;1292;48.020;7.822;2023-08-24T19:38:04;22.90;99.90
2565;DHT22;1292;48.020;7.822;2023-08-24T19:40:36;22.90;99.90
2565;DHT22;1292;48.020;7.822;2023-08-24T19:43:04;22.90;99.90
2565;DHT22;1292;48.020;7.822;2023-08-24T19:45:32;22.90;99.90
2565;DHT22;1292;48.020;7.822;2023-08-24T19:47:59;22.90;99.90
2565;DHT22;1292;48.020;7.822;2023-08-24T19:50:27;22.90;99.90
2565;DHT22;1292;48.020;7.822;2023-08-24T19:52:54;22.90;99.90
2565;DHT22;1292;48.020;7.822;2023-08-24T19:55:21;22.90;99.90
2565;DHT22;1292;48.020;7.822;2023-08-24T19:57:49;22.90;99.90
2565;DHT22;1292;48.020;7.822;2023-08-24T20:00:16;22.80;99.90
2565;DHT22;1292;48.020;7.822;2023-08-24T20:02:44;22.80;99.90
2565;DHT22;1292;48.020;7.822;2023-08-24T20:05:11;22.80;99.90
2565;DHT22;1292;48.020;7.822;2023-08-24T20:07:38;22.80;99.90
2565;DHT22;1292;48.020;7.822;2023-08-24T20:10:07;22.80;99.90
2565;DHT22;1292;48.020;7.822;2023-08-24T20:12:34;22.80;99.90
2565;DHT22;1292;48.020;7.822;2023-08-24T20:15:03;22.80;99.90
2565;DHT22;1292;48.020;7.822;2023-08-24T20:17:30;22.80;99.90
2565;DHT22;1292;48.020;7.822;2023-08-24T20:19:57;22.80;99.90
2565;DHT22;1292;48.020;7.822;2023-08-24T20:22:24;22.80;99.90
2565;DHT22;1292;48.020;7.822;2023-08-24T20:24:51;22.80;99.90
2565;DHT22;1292;48.020;7.822;2023-08-24T20:27:18;22.80;99.90
2565;DHT22;1292;48.020;7.822;2023-08-24T20:29:45;22.90;99.90
2565;DHT22;1292;48.020;7.822;2023-08-24T20:32:13;22.90;99.90
2565;DHT22;1292;48.020;7.822;2023-08-24T20:34:39;22.90;99.90
2565;DHT22;1292;48.020;7.822;2023-08-24T20:37:06;22.90;99.90
2565;DHT22;1292;48.020;7.822;2023-08-24T20:39:33;22.90;99.90
2565;DHT22;1292;48.020;7.822;2023-08-24T20:42:13;22.90;99.90
2565;DHT22;1292;48.020;7.822;2023-08-24T20:44:41;22.90;99.90
2565;DHT22;1292;48.020;7.822;2023-08-24T20:47:09;22.90;99.90
2565;DHT22;1292;48.020;7.822;2023-08-24T20:49:37;22.90;99.90
2565;DHT22;1292;48.020;7.822;2023-08-24T20:52:05;22.80;99.90
2565;DHT22;1292;48.020;7.822;2023-08-24T20:54:32;22.80;99.90
2565;DHT22;1292;48.020;7.822;2023-08-24T20:56:58;22.90;99.90
2565;DHT22;1292;48.020;7.822;2023-08-24T20:59:26;22.90;99.90
2565;DHT22;1292;48.020;7.822;2023-08-24T21:01:53;22.90;99.90
2565;DHT22;1292;48.020;7.822;2023-08-24T21:04:20;22.90;99.90
2565;DHT22;1292;48.020;7.822;2023-08-24T21:06:48;22.90;99.90
2565;DHT22;1292;48.020;7.822;2023-08-24T21:09:15;23.00;99.90
2565;DHT22;1292;48.020;7.822;2023-08-24T21:11:42;23.10;99.90
2565;DHT22;1292;48.020;7.822;2023-08-24T21:14:08;23.10;99.90
2565;DHT22;1292;48.020;7.822;2023-08-24T21:16:35;23.30;99.90
2565;DHT22;1292;48.020;7.822;2023-08-24T21:19:02;23.20;99.90
2565;DHT22;1292;48.020;7.822;2023-08-24T21:21:29;23.10;99.90
2565;DHT22;1292;48.020;7.822;2023-08-24T21:23:57;23.20;99.90
2565;DHT22;1292;48.020;7.822;2023-08-24T21:26:24;23.20;99.90
2565;DHT22;1292;48.020;7.822;2023-08-24T21:28:52;23.20;99.90
2565;DHT22;1292;48.020;7.822;2023-08-24T21:31:19;23.10;99.90
2565;DHT22;1292;48.020;7.822;2023-08-24T21:33:46;23.10;99.90
2565;DHT22;1292;48.020;7.822;2023-08-24T21:36:13;23.10;99.90
2565;DHT22;1292;48.020;7.822;2023-08-24T21:38:40;23.10;99.90
